createdAt,value
2023-04-03T00:01:31.947Z,-1.10
2023-04-03T00:04:34.187Z,-1.25
2023-04-03T00:07:36.449Z,-1.38
2023-04-03T00:10:39.243Z,-1.42
2023-04-03T00:13:41.698Z,-1.60
2023-04-03T00:16:43.955Z,-1.63
2023-04-03T00:19:46.181Z,-1.73
2023-04-03T00:22:48.387Z,-1.71
2023-04-03T00:25:50.851Z,-1.69
2023-04-03T00:28:53.313Z,-1.71
2023-04-03T00:31:55.583Z,-1.63
2023-04-03T00:34:57.850Z,-1.67
2023-04-03T00:38:00.188Z,-1.58
2023-04-03T00:41:02.416Z,-1.73
2023-04-03T00:44:20.363Z,-1.70
2023-04-03T00:47:24.416Z,-1.61
2023-04-03T00:50:27.452Z,-1.63
2023-04-03T00:53:33.935Z,-1.74
2023-04-03T00:56:36.241Z,-1.73
2023-04-03T00:59:41.286Z,-1.65
2023-04-03T01:02:43.513Z,-1.64
2023-04-03T01:05:48.562Z,-1.67
2023-04-03T01:08:50.793Z,-1.74
2023-04-03T01:11:52.999Z,-1.75
2023-04-03T01:14:56.849Z,-1.75
2023-04-03T01:17:59.704Z,-1.73
2023-04-03T01:21:22.715Z,-1.77
2023-04-03T01:24:34.272Z,-1.86
2023-04-03T01:27:37.814Z,-1.87
2023-04-03T01:30:48.604Z,-1.81
2023-04-03T01:33:51.481Z,-1.80
2023-04-03T01:36:54.650Z,-1.72
2023-04-03T01:39:57.707Z,-1.72
2023-04-03T01:42:59.950Z,-1.72
2023-04-03T01:46:02.318Z,-1.76
2023-04-03T01:49:05.044Z,-1.67
2023-04-03T01:52:07.212Z,-1.51
2023-04-03T01:55:09.723Z,-1.71
2023-04-03T01:58:12.003Z,-1.60
2023-04-03T02:01:14.243Z,-1.63
2023-04-03T02:04:16.520Z,-1.39
2023-04-03T02:07:18.744Z,-1.48
2023-04-03T02:10:21.055Z,-1.45
2023-04-03T02:13:23.246Z,-1.48
2023-04-03T02:16:25.591Z,-1.71
2023-04-03T02:19:27.770Z,-1.42
2023-04-03T02:22:29.968Z,-1.42
2023-04-03T02:25:33.327Z,-1.26
2023-04-03T02:28:35.869Z,-1.20
2023-04-03T02:31:38.094Z,-1.41
2023-04-03T02:34:41.576Z,-1.23
2023-04-03T02:37:46.713Z,-1.30
2023-04-03T02:40:49.663Z,-1.40
2023-04-03T02:43:51.862Z,-1.43
2023-04-03T02:46:54.168Z,-1.53
2023-04-03T02:49:56.410Z,-1.59
2023-04-03T02:52:58.651Z,-1.72
2023-04-03T02:56:00.963Z,-1.53
2023-04-03T02:59:03.372Z,-1.69
2023-04-03T03:02:05.897Z,-1.85
2023-04-03T03:05:08.489Z,-1.79
2023-04-03T03:08:10.850Z,-1.86
2023-04-03T03:11:13.286Z,-1.81
2023-04-03T03:14:15.472Z,-1.79
2023-04-03T03:17:18.121Z,-1.74
2023-04-03T03:20:20.444Z,-1.85
2023-04-03T03:23:22.785Z,-1.88
2023-04-03T03:26:26.173Z,-1.73
2023-04-03T03:29:28.359Z,-1.86
2023-04-03T03:32:30.688Z,-1.87
2023-04-03T03:35:32.962Z,-1.95
2023-04-03T03:38:35.432Z,-2.20
2023-04-03T03:41:38.202Z,-2.18
2023-04-03T03:44:41.156Z,-2.22
2023-04-03T03:47:43.423Z,-2.24
2023-04-03T03:50:45.915Z,-2.01
2023-04-03T03:53:48.800Z,-1.99
2023-04-03T03:56:54.095Z,-1.98
2023-04-03T03:59:57.013Z,-1.80
2023-04-03T04:02:59.710Z,-1.92
2023-04-03T04:06:03.434Z,-1.75
2023-04-03T04:09:05.928Z,-1.86
2023-04-03T04:12:08.709Z,-1.66
2023-04-03T04:15:11.791Z,-1.66
2023-04-03T04:18:14.544Z,-1.70
2023-04-03T04:21:19.179Z,-1.80
2023-04-03T04:24:23.933Z,-1.65
2023-04-03T04:27:28.753Z,-1.64
2023-04-03T04:30:31.590Z,-1.55
2023-04-03T04:33:34.332Z,-1.48
2023-04-03T04:36:39.077Z,-1.44
2023-04-03T04:39:41.904Z,-1.47
2023-04-03T04:42:44.592Z,-1.41
2023-04-03T04:45:47.085Z,-1.30
2023-04-03T04:48:50.548Z,-1.34
2023-04-03T04:51:55.074Z,-1.25
2023-04-03T04:55:03.520Z,-1.18
2023-04-03T04:58:05.822Z,-1.22
2023-04-03T05:01:08.901Z,-1.16
2023-04-03T05:04:16.260Z,-0.97
2023-04-03T05:07:20.661Z,-0.99
2023-04-03T05:10:23.101Z,-0.86
2023-04-03T05:13:25.572Z,-0.96
2023-04-03T05:16:29.474Z,-0.40
2023-04-03T05:19:31.972Z,0.16
2023-04-03T05:22:35.492Z,0.17
2023-04-03T05:25:42.043Z,0.79
2023-04-03T05:28:44.978Z,1.37
2023-04-03T05:31:47.919Z,1.71
2023-04-03T05:34:50.188Z,1.93
2023-04-03T05:37:52.840Z,2.15
2023-04-03T05:40:55.411Z,2.35
2023-04-03T05:43:57.920Z,2.48
2023-04-03T05:47:01.472Z,2.67
2023-04-03T05:50:04.146Z,2.39
2023-04-03T05:53:07.001Z,2.50
2023-04-03T05:56:09.355Z,2.52
2023-04-03T05:59:15.154Z,2.50
2023-04-03T06:02:18.662Z,2.61
2023-04-03T06:05:23.705Z,2.43
2023-04-03T06:08:26.743Z,2.12
2023-04-03T06:11:29.580Z,1.93
2023-04-03T06:14:31.907Z,1.95
2023-04-03T06:17:34.194Z,2.14
2023-04-03T06:20:36.845Z,2.13
2023-04-03T06:23:39.588Z,1.84
2023-04-03T06:26:41.860Z,1.70
2023-04-03T06:29:46.063Z,1.22
2023-04-03T06:32:48.271Z,1.35
2023-04-03T06:35:50.824Z,1.05
2023-04-03T06:38:53.076Z,0.96
2023-04-03T06:41:55.614Z,0.94
2023-04-03T06:45:12.832Z,0.60
2023-04-03T06:48:15.480Z,0.77
2023-04-03T06:51:21.965Z,0.87
2023-04-03T06:54:24.180Z,1.00
2023-04-03T06:57:26.731Z,0.88
2023-04-03T07:00:29.480Z,0.76
2023-04-03T07:03:32.388Z,0.95
2023-04-03T07:06:36.127Z,0.83
2023-04-03T07:09:38.294Z,0.62
2023-04-03T07:12:40.768Z,1.16
2023-04-03T07:15:43.046Z,1.15
2023-04-03T07:18:45.413Z,1.19
2023-04-03T07:21:47.716Z,1.03
2023-04-03T07:24:49.965Z,1.16
2023-04-03T07:27:52.178Z,1.23
2023-04-03T07:30:56.058Z,1.33
2023-04-03T07:33:58.203Z,1.41
2023-04-03T07:37:02.056Z,1.57
2023-04-03T07:40:04.979Z,1.24
2023-04-03T07:43:07.524Z,1.49
2023-04-03T07:46:10.402Z,1.42
2023-04-03T07:49:12.695Z,1.61
2023-04-03T07:52:16.526Z,1.80
2023-04-03T07:55:18.743Z,1.72
2023-04-03T07:58:20.994Z,1.80
2023-04-03T08:01:23.340Z,2.20
2023-04-03T08:04:26.242Z,2.17
2023-04-03T08:07:28.599Z,2.26
2023-04-03T08:10:31.660Z,2.30
2023-04-03T08:13:33.987Z,2.37
2023-04-03T08:16:36.563Z,2.49
2023-04-03T08:19:39.511Z,2.42
2023-04-03T08:22:41.721Z,2.74
2023-04-03T08:25:44.204Z,2.28
2023-04-03T08:28:46.417Z,2.37
2023-04-03T08:31:50.797Z,2.54
2023-04-03T08:34:53.024Z,2.06
2023-04-03T08:37:55.527Z,2.25
2023-04-03T08:41:04.486Z,2.19
2023-04-03T08:44:15.165Z,2.59
2023-04-03T08:47:29.116Z,2.36
2023-04-03T08:50:52.949Z,2.83
2023-04-03T08:53:55.674Z,2.69
2023-04-03T08:56:57.938Z,3.47
2023-04-03T09:00:20.423Z,3.51
2023-04-03T09:03:23.799Z,3.43
2023-04-03T09:06:31.726Z,3.00
2023-04-03T09:09:35.731Z,3.03
2023-04-03T09:12:40.274Z,2.92
2023-04-03T09:15:43.076Z,2.81
2023-04-03T09:18:47.359Z,2.57
2023-04-03T09:21:49.676Z,2.71
2023-04-03T09:24:54.719Z,2.89
2023-04-03T09:27:56.924Z,3.01
2023-04-03T09:30:59.151Z,2.47
2023-04-03T09:34:05.412Z,2.71
2023-04-03T09:37:08.234Z,3.15
2023-04-03T09:40:40.337Z,3.37
2023-04-03T09:43:43.024Z,3.45
2023-04-03T09:46:45.366Z,3.78
2023-04-03T09:49:47.613Z,3.88
2023-04-03T09:52:52.846Z,4.48
2023-04-03T09:55:55.351Z,5.01
2023-04-03T09:59:00.410Z,5.12
2023-04-03T10:02:18.125Z,4.67
2023-04-03T10:05:36.326Z,4.85
2023-04-03T10:08:38.525Z,4.25
2023-04-03T10:11:40.763Z,3.97
2023-04-03T10:14:55.840Z,4.10
2023-04-03T10:18:17.883Z,4.42
2023-04-03T10:21:44.004Z,4.65
2023-04-03T10:24:51.578Z,5.20
2023-04-03T10:28:04.294Z,5.32
2023-04-03T10:31:13.013Z,4.89
2023-04-03T10:34:25.396Z,4.53
2023-04-03T10:37:29.773Z,4.31
2023-04-03T10:40:47.303Z,4.78
2023-04-03T10:43:49.448Z,4.86
2023-04-03T10:46:59.711Z,4.82
2023-04-03T10:50:03.903Z,5.34
2023-04-03T10:53:29.664Z,5.21
2023-04-03T10:56:33.561Z,4.92
2023-04-03T10:59:40.904Z,4.84
2023-04-03T11:03:02.045Z,4.74
2023-04-03T11:06:07.209Z,5.06
2023-04-03T11:09:13.182Z,5.58
2023-04-03T11:12:34.001Z,5.26
2023-04-03T11:15:36.592Z,4.69
2023-04-03T11:18:46.789Z,4.64
2023-04-03T11:21:53.032Z,5.17
2023-04-03T11:25:01.159Z,5.53
2023-04-03T11:28:04.915Z,5.76
2023-04-03T11:31:11.253Z,5.29
2023-04-03T11:34:16.943Z,5.62
2023-04-03T11:37:30.019Z,5.49
2023-04-03T11:40:35.753Z,5.31
2023-04-03T11:43:43.128Z,5.28
2023-04-03T11:46:52.837Z,5.61
2023-04-03T11:50:04.700Z,4.82
2023-04-03T11:53:07.480Z,4.78
2023-04-03T11:56:33.190Z,4.74
2023-04-03T11:59:38.984Z,4.88
2023-04-03T12:02:53.954Z,4.91
2023-04-03T12:05:58.550Z,4.61
2023-04-03T12:09:00.749Z,5.11
2023-04-03T12:12:03.677Z,5.05
2023-04-03T12:15:24.387Z,4.56
2023-04-03T12:18:46.744Z,4.78
2023-04-03T12:21:53.164Z,4.26
2023-04-03T12:24:55.680Z,3.75
2023-04-03T12:27:58.147Z,4.30
2023-04-03T12:31:01.420Z,5.09
2023-04-03T12:34:14.386Z,5.32
2023-04-03T12:37:35.256Z,5.58
2023-04-03T12:40:43.892Z,4.95
2023-04-03T12:43:58.452Z,4.86
2023-04-03T12:47:02.066Z,5.49
2023-04-03T12:50:05.196Z,5.43
2023-04-03T12:53:14.708Z,5.15
2023-04-03T12:56:21.708Z,5.17
2023-04-03T12:59:25.082Z,5.74
2023-04-03T13:02:27.314Z,6.35
2023-04-03T13:05:29.937Z,6.64
2023-04-03T13:08:32.315Z,5.89
2023-04-03T13:11:38.236Z,5.45
2023-04-03T13:14:42.106Z,5.30
2023-04-03T13:17:44.549Z,4.86
2023-04-03T13:20:46.696Z,4.52
2023-04-03T13:23:51.542Z,4.26
2023-04-03T13:26:55.641Z,4.03
2023-04-03T13:29:59.100Z,3.95
2023-04-03T13:33:02.855Z,5.07
2023-04-03T13:36:07.031Z,5.10
2023-04-03T13:39:12.246Z,5.26
2023-04-03T13:42:18.525Z,5.18
2023-04-03T13:45:25.397Z,5.07
2023-04-03T13:48:27.957Z,4.48
2023-04-03T13:51:30.905Z,4.97
2023-04-03T13:54:37.785Z,5.51
2023-04-03T13:57:49.921Z,5.30
2023-04-03T14:00:52.242Z,5.56
2023-04-03T14:03:58.432Z,5.75
2023-04-03T14:07:01.179Z,6.00
2023-04-03T14:10:03.620Z,5.36
2023-04-03T14:13:05.803Z,4.26
2023-04-03T14:16:15.676Z,4.31
2023-04-03T14:19:20.093Z,4.18
2023-04-03T14:22:24.400Z,4.85
2023-04-03T14:25:26.862Z,4.63
2023-04-03T14:28:29.110Z,4.59
2023-04-03T14:31:31.696Z,4.57
2023-04-03T14:34:33.892Z,4.40
2023-04-03T14:37:36.581Z,4.12
2023-04-03T14:40:38.964Z,3.94
2023-04-03T14:43:41.525Z,3.78
2023-04-03T14:46:56.178Z,3.93
2023-04-03T14:50:00.043Z,3.72
2023-04-03T14:53:02.690Z,3.77
2023-04-03T14:56:06.682Z,3.41
2023-04-03T14:59:13.187Z,3.34
2023-04-03T15:02:25.789Z,3.55
2023-04-03T15:05:28.243Z,3.82
2023-04-03T15:08:30.741Z,4.02
2023-04-03T15:11:33.006Z,4.43
2023-04-03T15:14:42.298Z,4.38
2023-04-03T15:17:55.130Z,3.56
2023-04-03T15:20:57.602Z,3.31
2023-04-03T15:24:01.647Z,2.73
2023-04-03T15:27:04.415Z,2.61
2023-04-03T15:30:07.441Z,2.59
2023-04-03T15:33:09.762Z,2.61
2023-04-03T15:39:19.645Z,2.39
2023-04-03T15:42:21.920Z,2.32
2023-04-03T15:45:24.402Z,2.32
2023-04-03T15:48:26.791Z,2.12
2023-04-03T15:51:29.064Z,2.10
2023-04-03T15:54:31.522Z,1.96
2023-04-03T16:00:41.497Z,1.90
2023-04-03T16:03:46.425Z,2.36
2023-04-03T16:06:48.943Z,2.73
2023-04-03T16:09:51.189Z,3.33
2023-04-03T16:12:53.435Z,3.12
2023-04-03T16:15:56.102Z,2.69
2023-04-03T16:18:58.364Z,2.90
2023-04-03T16:22:00.644Z,2.99
2023-04-03T16:25:03.058Z,3.19
2023-04-03T16:28:05.419Z,3.07
2023-04-03T16:31:08.264Z,2.79
2023-04-03T16:34:10.890Z,2.82
2023-04-03T16:37:13.151Z,2.45
2023-04-03T16:40:15.925Z,2.37
2023-04-03T16:43:18.521Z,2.23
2023-04-03T16:46:20.838Z,2.36
2023-04-03T16:49:23.171Z,2.34
2023-04-03T16:52:25.511Z,2.30
2023-04-03T16:55:27.761Z,1.89
2023-04-03T16:58:29.921Z,1.81
2023-04-03T17:01:32.466Z,1.64
2023-04-03T17:04:34.978Z,1.56
2023-04-03T17:07:37.314Z,1.47
2023-04-03T17:10:40.518Z,1.70
2023-04-03T17:13:43.986Z,1.42
2023-04-03T17:16:46.290Z,1.64
2023-04-03T17:19:48.554Z,1.68
2023-04-03T17:22:50.907Z,1.62
2023-04-03T17:25:55.210Z,1.77
2023-04-03T17:28:57.417Z,1.63
2023-04-03T17:31:59.672Z,1.45
2023-04-03T17:35:01.914Z,1.53
2023-04-03T17:38:04.990Z,1.36
2023-04-03T17:41:07.926Z,1.18
2023-04-03T17:44:10.245Z,1.02
2023-04-03T17:47:12.443Z,0.98
2023-04-03T17:50:16.500Z,0.75
2023-04-03T17:53:18.852Z,0.99
2023-04-03T17:56:23.776Z,1.18
2023-04-03T17:59:26.884Z,1.13
2023-04-03T18:02:30.227Z,1.01
2023-04-03T18:05:32.745Z,1.12
2023-04-03T18:08:36.219Z,1.36
2023-04-03T18:11:38.451Z,1.38
2023-04-03T18:17:15.150Z,1.21
2023-04-03T18:20:18.556Z,1.32
2023-04-03T18:23:21.419Z,1.17
2023-04-03T18:26:27.122Z,1.28
2023-04-03T18:29:31.723Z,1.44
2023-04-03T18:32:34.223Z,1.36
2023-04-03T18:35:36.773Z,1.20
2023-04-03T18:38:40.109Z,1.17
2023-04-03T18:41:42.725Z,0.98
2023-04-03T18:44:47.236Z,1.12
2023-04-03T18:47:49.892Z,1.23
2023-04-03T18:50:52.438Z,1.30
2023-04-03T18:53:54.818Z,1.14
2023-04-03T18:56:57.987Z,1.12
2023-04-03T19:00:00.748Z,0.92
2023-04-03T19:03:03.298Z,0.94
2023-04-03T19:06:06.136Z,1.03
2023-04-03T19:09:08.790Z,0.90
2023-04-03T19:12:11.165Z,0.89
2023-04-03T19:15:15.058Z,0.80
2023-04-03T19:18:17.321Z,0.91
2023-04-03T19:21:19.843Z,0.88
2023-04-03T19:24:22.181Z,0.86
2023-04-03T19:27:24.554Z,0.84
2023-04-03T19:30:27.071Z,0.86
2023-04-03T19:33:29.640Z,0.75
2023-04-03T19:36:33.562Z,0.73
2023-04-03T19:39:37.272Z,0.67
2023-04-03T19:42:42.969Z,0.85
2023-04-03T19:45:46.583Z,0.85
2023-04-03T19:48:49.062Z,0.67
2023-04-03T19:51:53.457Z,0.77
2023-04-03T19:54:55.891Z,0.76
2023-04-03T19:58:02.499Z,0.70
2023-04-03T20:01:05.087Z,0.48
2023-04-03T20:04:07.713Z,0.31
2023-04-03T20:07:10.218Z,0.55
2023-04-03T20:10:12.584Z,0.55
2023-04-03T20:13:15.383Z,0.55
2023-04-03T20:16:18.381Z,0.58
2023-04-03T20:19:21.700Z,0.53
2023-04-03T20:22:24.181Z,0.33
2023-04-03T20:25:47.849Z,0.34
2023-04-03T20:28:53.484Z,0.57
2023-04-03T20:31:56.162Z,0.43
2023-04-03T20:35:04.322Z,0.54
2023-04-03T20:38:07.414Z,0.28
2023-04-03T20:41:10.434Z,0.04
2023-04-03T20:44:12.991Z,0.08
2023-04-03T20:47:15.835Z,-0.07
2023-04-03T20:50:21.509Z,-0.14
2023-04-03T20:53:24.975Z,-0.15
2023-04-03T20:56:33.617Z,-0.18
2023-04-03T20:59:37.476Z,-0.23
2023-04-03T21:02:40.313Z,-0.13
2023-04-03T21:05:42.665Z,-0.25
2023-04-03T21:09:22.323Z,-0.50
2023-04-03T21:13:03.249Z,-0.43
2023-04-03T21:16:05.504Z,-0.59
2023-04-03T21:19:13.742Z,-0.69
2023-04-03T21:22:16.965Z,-0.75
2023-04-03T21:25:19.299Z,-0.92
2023-04-03T21:28:22.992Z,-0.89
2023-04-03T21:31:32.471Z,-0.91
2023-04-03T21:34:35.117Z,-0.78
2023-04-03T21:37:38.048Z,-0.73
2023-04-03T21:40:41.350Z,-0.58
2023-04-03T21:43:47.122Z,-0.60
2023-04-03T21:46:53.779Z,-0.61
2023-04-03T21:49:56.045Z,-0.74
2023-04-03T21:52:58.358Z,-0.76
2023-04-03T21:56:02.577Z,-0.72
2023-04-03T21:59:05.371Z,-0.73
2023-04-03T22:02:07.916Z,-0.64
2023-04-03T22:05:10.598Z,-0.53
2023-04-03T22:08:12.997Z,-0.60
2023-04-03T22:11:16.669Z,-0.36
2023-04-03T22:14:19.133Z,-0.43
2023-04-03T22:17:21.515Z,-0.42
2023-04-03T22:20:23.982Z,-0.45
2023-04-03T22:23:27.452Z,-0.49
2023-04-03T22:26:29.828Z,-0.66
2023-04-03T22:29:32.104Z,-0.63
2023-04-03T22:32:34.785Z,-0.63
2023-04-03T22:35:37.188Z,-0.60
2023-04-03T22:38:43.128Z,-0.55
2023-04-03T22:41:45.867Z,-0.60
2023-04-03T22:44:48.131Z,-0.61
2023-04-03T22:47:50.569Z,-0.59
2023-04-03T22:50:53.099Z,-0.58
2023-04-03T22:53:55.571Z,-0.61
2023-04-03T22:56:58.133Z,-0.68
2023-04-03T23:00:00.438Z,-0.78
2023-04-03T23:03:03.019Z,-0.62
2023-04-03T23:06:06.684Z,-0.58
2023-04-03T23:09:09.090Z,-0.44
2023-04-03T23:12:11.444Z,-0.50
2023-04-03T23:15:19.486Z,-0.52
2023-04-03T23:18:21.979Z,-0.54
2023-04-03T23:21:24.375Z,-0.64
2023-04-03T23:24:26.641Z,-0.57
2023-04-03T23:27:29.105Z,-0.25
2023-04-03T23:30:31.454Z,-0.32
2023-04-03T23:33:34.165Z,-0.03
2023-04-03T23:36:36.434Z,-0.01
2023-04-03T23:39:38.948Z,-0.02
2023-04-03T23:42:41.641Z,-0.14
2023-04-03T23:45:46.930Z,-0.14
2023-04-03T23:48:49.435Z,-0.07
2023-04-03T23:51:52.231Z,-0.03
2023-04-03T23:54:55.015Z,-0.16
2023-04-03T23:57:57.535Z,-0.42
